createdAt,value
2018-04-29T00:00:19.432Z,12.50
2018-04-29T00:02:49.787Z,12.50
2018-04-29T00:05:39.220Z,12.40
2018-04-29T00:08:10.357Z,12.20
2018-04-29T00:10:43.520Z,11.80
2018-04-29T00:13:13.863Z,11.80
2018-04-29T00:15:44.220Z,11.70
2018-04-29T00:18:14.831Z,11.70
2018-04-29T00:20:45.960Z,11.70
2018-04-29T00:23:17.096Z,11.80
2018-04-29T00:25:47.456Z,11.70
2018-04-29T00:28:17.788Z,11.90
2018-04-29T00:30:48.173Z,11.80
2018-04-29T00:33:18.831Z,11.60
2018-04-29T00:35:49.188Z,11.90
2018-04-29T00:38:21.616Z,11.80
2018-04-29T00:40:52.268Z,11.80
2018-04-29T00:43:22.619Z,11.60
2018-04-29T00:45:54.012Z,11.80
2018-04-29T00:48:24.315Z,12.00
2018-04-29T00:50:54.684Z,11.90
2018-04-29T00:53:25.819Z,11.70
2018-04-29T00:55:56.171Z,11.80
2018-04-29T00:58:26.528Z,11.80
2018-04-29T01:01:19.094Z,11.90
2018-04-29T01:03:49.445Z,11.90
2018-04-29T01:06:20.563Z,11.90
2018-04-29T01:08:50.927Z,12.00
2018-04-29T01:11:21.285Z,12.00
2018-04-29T01:13:55.741Z,11.90
2018-04-29T01:16:26.102Z,11.80
2018-04-29T01:18:57.199Z,11.70
2018-04-29T01:21:27.532Z,11.60
2018-04-29T01:23:57.963Z,11.60
2018-04-29T01:26:29.009Z,11.50
2018-04-29T01:28:59.349Z,11.50
2018-04-29T01:31:30.471Z,11.60
2018-04-29T01:34:00.823Z,11.60
2018-04-29T01:36:31.949Z,11.40
2018-04-29T01:39:02.316Z,11.40
2018-04-29T01:41:32.648Z,11.20
2018-04-29T01:44:03.009Z,11.20
2018-04-29T01:46:33.340Z,11.40
2018-04-29T01:49:03.691Z,11.40
2018-04-29T01:51:34.897Z,11.40
2018-04-29T01:54:05.146Z,11.40
2018-04-29T01:56:35.483Z,11.50
2018-04-29T01:59:06.612Z,11.60
2018-04-29T02:01:36.971Z,11.60
2018-04-29T02:04:08.076Z,11.70
2018-04-29T02:06:38.413Z,11.70
2018-04-29T02:09:08.736Z,11.70
2018-04-29T02:11:39.101Z,11.70
2018-04-29T02:14:09.457Z,11.70
2018-04-29T02:16:39.820Z,11.40
2018-04-29T02:19:10.944Z,11.30
2018-04-29T02:24:24.722Z,11.30
2018-04-29T02:26:55.073Z,11.30
2018-04-29T02:29:26.197Z,11.20
2018-04-29T02:31:56.551Z,11.20
2018-04-29T02:34:26.884Z,11.30
2018-04-29T02:36:57.238Z,11.40
2018-04-29T02:39:27.618Z,11.20
2018-04-29T02:41:58.713Z,11.20
2018-04-29T02:44:29.059Z,11.20
2018-04-29T02:46:59.394Z,11.20
2018-04-29T02:49:30.499Z,11.30
2018-04-29T02:52:01.085Z,11.30
2018-04-29T02:54:32.211Z,11.30
2018-04-29T02:57:02.567Z,11.30
2018-04-29T02:59:32.935Z,11.40
2018-04-29T03:02:24.444Z,11.50
2018-04-29T03:05:14.109Z,11.50
2018-04-29T03:07:44.506Z,11.40
2018-04-29T03:10:14.808Z,11.40
2018-04-29T03:12:45.158Z,11.40
2018-04-29T03:15:16.275Z,11.30
2018-04-29T03:17:47.651Z,11.30
2018-04-29T03:20:17.993Z,11.30
2018-04-29T03:22:48.345Z,11.40
2018-04-29T03:25:42.429Z,11.40
2018-04-29T03:28:12.296Z,11.40
2018-04-29T03:30:42.654Z,11.40
2018-04-29T03:33:17.077Z,11.30
2018-04-29T03:35:54.609Z,11.20
2018-04-29T03:38:24.950Z,11.30
2018-04-29T03:40:56.060Z,10.90
2018-04-29T03:43:28.471Z,10.90
2018-04-29T03:45:59.572Z,11.10
2018-04-29T03:48:29.907Z,11.10
2018-04-29T03:51:00.293Z,11.20
2018-04-29T03:53:30.649Z,11.00
2018-04-29T03:56:01.301Z,11.20
2018-04-29T03:59:27.033Z,11.10
2018-04-29T04:02:51.888Z,11.10
2018-04-29T04:05:22.203Z,10.80
2018-04-29T04:07:52.565Z,10.70
2018-04-29T04:10:22.900Z,10.60
2018-04-29T04:12:53.275Z,10.50
2018-04-29T04:15:23.608Z,10.70
2018-04-29T04:17:53.946Z,10.90
2018-04-29T04:20:30.456Z,10.80
2018-04-29T04:23:00.811Z,10.80
2018-04-29T04:25:31.168Z,10.90
2018-04-29T04:28:08.698Z,10.90
2018-04-29T04:30:39.037Z,10.70
2018-04-29T04:33:10.139Z,10.90
2018-04-29T04:36:01.674Z,11.00
2018-04-29T04:38:32.030Z,11.00
2018-04-29T04:41:03.097Z,11.20
2018-04-29T04:43:34.576Z,11.20
2018-04-29T04:46:04.809Z,11.00
2018-04-29T04:48:37.209Z,10.90
2018-04-29T04:51:09.589Z,10.90
2018-04-29T04:53:40.665Z,10.80
2018-04-29T04:56:11.022Z,10.90
2018-04-29T04:58:41.407Z,11.00
2018-04-29T05:01:12.522Z,11.20
2018-04-29T05:03:42.857Z,11.20
2018-04-29T05:06:13.988Z,11.00
2018-04-29T05:08:44.408Z,11.00
2018-04-29T05:11:14.700Z,10.80
2018-04-29T05:13:49.179Z,10.90
2018-04-29T05:16:19.516Z,11.10
2018-04-29T05:18:49.869Z,11.00
2018-04-29T05:21:22.275Z,11.20
2018-04-29T05:23:52.624Z,11.00
2018-04-29T05:26:23.723Z,11.10
2018-04-29T05:29:01.419Z,11.10
2018-04-29T05:31:51.163Z,11.10
2018-04-29T05:34:22.329Z,11.10
2018-04-29T05:36:52.668Z,11.10
2018-04-29T05:39:46.228Z,11.30
2018-04-29T05:42:17.595Z,11.30
2018-04-29T05:44:49.972Z,11.20
2018-04-29T05:47:20.334Z,11.30
2018-04-29T05:49:51.493Z,11.10
2018-04-29T05:52:22.784Z,11.10
2018-04-29T05:55:14.558Z,11.10
2018-04-29T05:57:44.923Z,11.00
2018-04-29T06:00:15.308Z,11.20
2018-04-29T06:02:45.652Z,11.20
2018-04-29T06:05:16.015Z,11.20
2018-04-29T06:08:07.830Z,11.30
2018-04-29T06:10:38.201Z,11.30
2018-04-29T06:13:08.549Z,11.20
2018-04-29T06:15:39.911Z,10.90
2018-04-29T06:18:11.021Z,11.00
2018-04-29T06:20:41.376Z,10.90
2018-04-29T06:23:11.748Z,11.00
2018-04-29T06:25:42.085Z,11.10
2018-04-29T06:28:12.439Z,11.00
2018-04-29T06:30:43.580Z,11.10
2018-04-29T06:33:14.684Z,11.10
2018-04-29T06:35:50.153Z,11.00
2018-04-29T06:38:20.507Z,11.10
2018-04-29T06:43:34.032Z,11.10
2018-04-29T06:46:04.381Z,11.10
2018-04-29T06:48:35.496Z,11.10
2018-04-29T06:51:05.816Z,11.10
2018-04-29T06:53:36.160Z,10.80
2018-04-29T06:56:06.494Z,10.70
2018-04-29T06:58:37.653Z,11.10
2018-04-29T07:01:07.995Z,11.10
2018-04-29T07:03:38.350Z,11.00
2018-04-29T07:06:08.736Z,11.10
2018-04-29T07:08:39.088Z,10.80
2018-04-29T07:11:13.523Z,10.80
2018-04-29T07:13:44.098Z,10.70
2018-04-29T07:16:15.215Z,11.00
2018-04-29T07:18:45.573Z,11.00
2018-04-29T07:21:16.796Z,11.10
2018-04-29T07:23:47.158Z,11.10
2018-04-29T07:26:17.493Z,11.20
2018-04-29T07:28:47.951Z,11.20
2018-04-29T07:31:18.228Z,11.00
2018-04-29T07:33:49.328Z,11.20
2018-04-29T07:36:19.690Z,11.20
2018-04-29T07:38:50.809Z,11.20
2018-04-29T07:41:21.110Z,11.20
2018-04-29T07:43:51.495Z,11.40
2018-04-29T07:46:23.195Z,11.50
2018-04-29T07:48:54.265Z,11.40
2018-04-29T07:51:24.635Z,11.30
2018-04-29T07:53:54.982Z,11.40
2018-04-29T07:56:43.671Z,11.40
2018-04-29T07:59:14.092Z,11.50
2018-04-29T08:01:46.168Z,11.60
2018-04-29T08:04:17.546Z,11.60
2018-04-29T08:06:47.941Z,11.70
2018-04-29T08:09:18.275Z,11.60
2018-04-29T08:11:49.412Z,11.60
2018-04-29T08:14:19.778Z,11.60
2018-04-29T08:16:50.088Z,11.80
2018-04-29T08:19:20.454Z,11.80
2018-04-29T08:21:54.873Z,11.70
2018-04-29T08:24:25.239Z,11.80
2018-04-29T08:26:55.623Z,11.90
2018-04-29T08:29:48.134Z,11.90
2018-04-29T08:32:18.498Z,11.80
2018-04-29T08:35:11.052Z,11.90
2018-04-29T08:37:41.446Z,11.90
2018-04-29T08:40:11.757Z,11.80
2018-04-29T08:42:42.101Z,11.90
2018-04-29T08:45:12.455Z,11.80
2018-04-29T08:47:42.817Z,12.00
2018-04-29T08:50:13.939Z,11.80
2018-04-29T08:52:44.317Z,11.80
2018-04-29T08:55:14.658Z,11.70
2018-04-29T08:57:52.179Z,11.80
2018-04-29T09:00:22.539Z,11.90
2018-04-29T09:02:52.875Z,11.90
2018-04-29T09:05:23.262Z,11.70
2018-04-29T09:07:53.587Z,11.80
2018-04-29T09:10:23.923Z,11.70
2018-04-29T09:12:54.253Z,11.60
2018-04-29T09:15:24.617Z,11.70
2018-04-29T09:17:54.980Z,11.70
2018-04-29T09:20:25.367Z,11.80
2018-04-29T09:22:55.725Z,11.80
2018-04-29T09:25:26.084Z,11.80
2018-04-29T09:27:59.488Z,12.20
2018-04-29T09:30:29.791Z,12.20
2018-04-29T09:33:00.153Z,12.00
2018-04-29T09:35:31.349Z,11.70
2018-04-29T09:38:02.407Z,11.70
2018-04-29T09:40:32.743Z,11.70
2018-04-29T09:43:04.083Z,11.60
2018-04-29T09:45:34.431Z,11.60
2018-04-29T09:48:05.535Z,11.90
2018-04-29T09:50:35.891Z,11.90
2018-04-29T09:53:06.995Z,11.80
2018-04-29T09:55:38.349Z,11.80
2018-04-29T09:58:08.705Z,11.70
2018-04-29T10:00:39.812Z,11.70
2018-04-29T10:03:10.168Z,11.70
2018-04-29T10:05:40.569Z,11.70
2018-04-29T10:08:10.927Z,11.70
2018-04-29T10:10:41.287Z,11.70
2018-04-29T10:13:11.643Z,11.60
2018-04-29T10:15:41.983Z,11.70
2018-04-29T10:18:12.319Z,11.80
2018-04-29T10:20:42.704Z,11.80
2018-04-29T10:23:13.003Z,11.90
2018-04-29T10:25:43.344Z,11.80
2018-04-29T10:28:13.740Z,11.80
2018-04-29T10:30:44.840Z,11.80
2018-04-29T10:33:15.205Z,11.70
2018-04-29T10:35:46.324Z,11.70
2018-04-29T10:38:16.675Z,11.60
2018-04-29T10:40:47.794Z,11.70
2018-04-29T10:43:18.175Z,11.70
2018-04-29T10:45:48.513Z,11.70
2018-04-29T10:48:24.044Z,11.80
2018-04-29T10:53:38.632Z,11.80
2018-04-29T10:56:10.007Z,11.70
2018-04-29T10:58:40.325Z,11.70
2018-04-29T11:01:12.711Z,11.70
2018-04-29T11:03:43.076Z,11.90
2018-04-29T11:06:14.195Z,11.80
2018-04-29T11:08:44.847Z,11.80
2018-04-29T11:11:15.920Z,11.90
2018-04-29T11:13:46.282Z,11.80
2018-04-29T11:16:16.630Z,11.70
2018-04-29T11:18:46.959Z,11.80
2018-04-29T11:21:19.367Z,11.70
2018-04-29T11:23:49.685Z,12.00
2018-04-29T11:26:20.024Z,12.00
2018-04-29T11:28:52.408Z,11.90
2018-04-29T11:31:24.808Z,11.90
2018-04-29T11:33:55.211Z,12.00
2018-04-29T11:36:26.255Z,12.10
2018-04-29T11:38:56.617Z,12.10
2018-04-29T11:41:26.951Z,12.00
2018-04-29T11:43:58.051Z,12.00
2018-04-29T11:46:28.425Z,12.00
2018-04-29T11:48:59.548Z,12.10
2018-04-29T11:51:29.892Z,12.10
2018-04-29T11:54:01.035Z,12.00
2018-04-29T11:56:32.160Z,12.00
2018-04-29T11:59:02.513Z,12.00
2018-04-29T12:01:33.668Z,12.00
2018-04-29T12:04:04.029Z,11.90
2018-04-29T12:06:56.589Z,11.80
2018-04-29T12:09:26.933Z,11.80
2018-04-29T12:11:57.236Z,11.80
2018-04-29T12:14:27.600Z,11.80
2018-04-29T12:16:58.717Z,11.80
2018-04-29T12:19:29.074Z,11.80
2018-04-29T12:21:59.439Z,11.90
2018-04-29T12:24:37.183Z,11.80
2018-04-29T12:27:08.288Z,11.80
2018-04-29T12:29:38.631Z,11.80
2018-04-29T12:32:09.198Z,11.80
2018-04-29T12:34:40.292Z,11.80
2018-04-29T12:37:10.654Z,11.80
2018-04-29T12:39:41.295Z,11.80
2018-04-29T12:42:12.457Z,11.90
2018-04-29T12:44:42.820Z,11.90
2018-04-29T12:47:16.225Z,11.80
2018-04-29T12:49:46.588Z,11.80
2018-04-29T12:52:17.774Z,11.60
2018-04-29T12:54:48.036Z,11.60
2018-04-29T12:57:18.405Z,11.70
2018-04-29T12:59:49.018Z,11.70
2018-04-29T13:02:20.116Z,11.80
2018-04-29T13:04:50.477Z,11.70
2018-04-29T13:07:21.601Z,11.50
2018-04-29T13:09:51.943Z,11.60
2018-04-29T13:12:22.332Z,11.60
2018-04-29T13:14:54.729Z,11.60
2018-04-29T13:17:25.068Z,11.60
2018-04-29T13:19:55.394Z,11.50
2018-04-29T13:22:25.746Z,11.60
2018-04-29T13:24:56.164Z,11.70
2018-04-29T13:27:26.421Z,11.70
2018-04-29T13:30:02.903Z,11.70
2018-04-29T13:32:54.984Z,11.70
2018-04-29T13:35:26.104Z,11.60
2018-04-29T13:37:56.446Z,11.60
2018-04-29T13:40:27.585Z,11.90
2018-04-29T13:42:57.922Z,11.90
2018-04-29T13:45:29.038Z,11.90
2018-04-29T13:47:59.423Z,11.90
2018-04-29T13:50:29.759Z,11.90
2018-04-29T13:53:00.124Z,12.00
2018-04-29T13:55:30.504Z,11.90
2018-04-29T13:58:00.865Z,11.90
2018-04-29T14:00:31.171Z,12.00
2018-04-29T14:03:23.729Z,11.90
2018-04-29T14:05:54.056Z,11.90
2018-04-29T14:08:24.394Z,12.00
2018-04-29T14:10:54.719Z,11.90
2018-04-29T14:13:25.383Z,11.90
2018-04-29T14:15:56.511Z,11.90
2018-04-29T14:18:27.666Z,11.80
2018-04-29T14:20:58.763Z,11.80
2018-04-29T14:23:30.109Z,11.80
2018-04-29T14:26:03.551Z,11.80
2018-04-29T14:32:45.031Z,11.80
2018-04-29T14:35:15.391Z,11.90
2018-04-29T14:37:46.481Z,11.80
2018-04-29T14:40:37.000Z,11.90
2018-04-29T14:43:07.357Z,11.90
2018-04-29T14:45:38.481Z,11.70
2018-04-29T14:50:52.029Z,11.80
2018-04-29T14:53:22.356Z,12.00
2018-04-29T14:55:52.661Z,12.00
2018-04-29T14:58:45.184Z,12.00
2018-04-29T15:01:15.534Z,12.00
2018-04-29T15:03:47.937Z,12.20
2018-04-29T15:06:18.319Z,12.10
2018-04-29T15:08:52.753Z,12.10
2018-04-29T15:11:46.332Z,12.10
2018-04-29T15:14:16.689Z,12.10
2018-04-29T15:16:47.787Z,12.10
2018-04-29T15:19:18.261Z,12.10
2018-04-29T15:21:48.598Z,12.10
2018-04-29T15:24:19.705Z,12.10
2018-04-29T15:26:50.070Z,12.10
2018-04-29T15:29:22.216Z,12.00
2018-04-29T15:31:52.569Z,12.00
2018-04-29T15:34:25.761Z,11.80
2018-04-29T15:36:57.904Z,11.80
2018-04-29T15:39:28.262Z,11.80
2018-04-29T15:41:58.648Z,11.80
2018-04-29T15:44:29.005Z,11.90
2018-04-29T15:47:00.122Z,11.90
2018-04-29T15:49:30.518Z,11.90
2018-04-29T15:52:20.236Z,12.00
2018-04-29T15:54:51.377Z,11.90
2018-04-29T15:57:21.735Z,11.90
2018-04-29T15:59:52.087Z,11.90
2018-04-29T16:02:44.628Z,11.90
2018-04-29T16:05:22.384Z,11.90
2018-04-29T16:07:53.597Z,12.00
2018-04-29T16:10:24.636Z,12.00
2018-04-29T16:12:54.990Z,12.00
2018-04-29T16:15:26.138Z,12.00
2018-04-29T16:17:56.487Z,12.00
2018-04-29T16:20:26.845Z,11.90
2018-04-29T16:23:00.483Z,11.80
2018-04-29T16:25:31.596Z,11.70
2018-04-29T16:28:01.957Z,11.80
2018-04-29T16:30:32.341Z,11.80
2018-04-29T16:33:02.701Z,11.70
2018-04-29T16:35:33.041Z,11.70
2018-04-29T16:38:04.227Z,11.70
2018-04-29T16:40:35.282Z,11.60
2018-04-29T16:43:12.825Z,11.60
2018-04-29T16:45:44.003Z,11.60
2018-04-29T16:48:15.392Z,11.60
2018-04-29T16:50:45.758Z,11.60
2018-04-29T16:53:16.099Z,11.70
2018-04-29T16:55:46.408Z,11.70
2018-04-29T16:58:16.761Z,11.50
2018-04-29T17:00:52.472Z,11.40
2018-04-29T17:03:23.631Z,11.30
2018-04-29T17:05:54.748Z,11.30
2018-04-29T17:08:25.953Z,11.20
2018-04-29T17:10:56.270Z,11.10
2018-04-29T17:13:26.861Z,11.30
2018-04-29T17:15:57.979Z,11.10
2018-04-29T17:18:28.358Z,11.10
2018-04-29T17:20:58.716Z,11.10
2018-04-29T17:23:32.543Z,11.10
2018-04-29T17:26:03.512Z,11.00
2018-04-29T17:28:36.679Z,11.00
2018-04-29T17:31:07.037Z,11.00
2018-04-29T17:33:38.179Z,11.10
2018-04-29T17:36:08.537Z,11.10
2018-04-29T17:38:46.048Z,11.10
2018-04-29T17:41:16.400Z,11.10
2018-04-29T17:43:46.754Z,11.00
2018-04-29T17:46:17.136Z,11.10
2018-04-29T17:48:47.499Z,11.10
2018-04-29T17:51:18.623Z,11.00
2018-04-29T17:53:49.765Z,10.90
2018-04-29T17:56:20.889Z,10.90
2018-04-29T17:58:51.252Z,10.90
2018-04-29T18:01:22.506Z,11.10
2018-04-29T18:03:52.705Z,11.10
2018-04-29T18:06:23.839Z,11.00
2018-04-29T18:08:54.208Z,11.00
2018-04-29T18:11:24.816Z,11.00
2018-04-29T18:13:55.935Z,11.00
2018-04-29T18:16:26.315Z,11.00
2018-04-29T18:18:56.670Z,11.00
2018-04-29T18:21:27.024Z,11.00
2018-04-29T18:23:57.405Z,11.00
2018-04-29T18:26:34.903Z,10.90
2018-04-29T18:29:11.409Z,11.00
2018-04-29T18:31:41.766Z,10.90
2018-04-29T18:34:12.122Z,10.90
2018-04-29T18:36:44.498Z,11.00
2018-04-29T18:39:34.969Z,11.00
2018-04-29T18:42:05.349Z,11.00
2018-04-29T18:44:35.788Z,11.00
2018-04-29T18:47:06.782Z,10.90
2018-04-29T18:49:41.253Z,11.00
2018-04-29T18:52:11.614Z,10.90
2018-04-29T18:54:42.224Z,11.00
2018-04-29T18:57:13.370Z,11.00
2018-04-29T19:02:26.953Z,11.10
2018-04-29T19:04:59.371Z,11.10
2018-04-29T19:07:29.678Z,11.00
2018-04-29T19:10:00.039Z,10.90
2018-04-29T19:12:31.166Z,11.10
2018-04-29T19:15:01.522Z,11.10
2018-04-29T19:17:33.699Z,11.10
2018-04-29T19:20:04.089Z,11.10
2018-04-29T19:22:34.412Z,11.10
2018-04-29T19:25:04.798Z,11.20
2018-04-29T19:27:37.151Z,11.10
2018-04-29T19:30:07.512Z,11.10
2018-04-29T19:32:45.214Z,11.00
2018-04-29T19:35:16.597Z,11.00
2018-04-29T19:37:47.671Z,11.00
2018-04-29T19:40:20.113Z,11.00
2018-04-29T19:42:50.464Z,11.00
2018-04-29T19:45:20.823Z,10.90
2018-04-29T19:48:10.577Z,11.00
2018-04-29T19:50:40.942Z,11.00
2018-04-29T19:53:30.686Z,11.00
2018-04-29T19:56:01.025Z,10.90
2018-04-29T19:58:33.407Z,10.70
2018-04-29T20:01:11.111Z,10.80
2018-04-29T20:03:41.467Z,10.80
2018-04-29T20:06:11.773Z,10.80
2018-04-29T20:08:42.142Z,10.90
2018-04-29T20:11:13.518Z,10.90
2018-04-29T20:13:43.873Z,10.90
2018-04-29T20:16:14.450Z,10.90
2018-04-29T20:18:45.521Z,10.90
2018-04-29T20:21:17.929Z,10.90
2018-04-29T20:23:48.301Z,10.90
2018-04-29T20:26:19.406Z,11.20
2018-04-29T20:28:49.749Z,11.20
2018-04-29T20:31:20.887Z,10.90
2018-04-29T20:33:51.242Z,10.90
2018-04-29T20:36:21.593Z,11.00
2018-04-29T20:38:51.978Z,10.80
2018-04-29T20:41:23.076Z,10.90
2018-04-29T20:43:53.431Z,10.80
2018-04-29T20:46:23.793Z,10.90
2018-04-29T20:48:54.164Z,10.90
2018-04-29T20:51:25.281Z,10.90
2018-04-29T20:53:59.752Z,10.90
2018-04-29T20:56:30.872Z,10.80
2018-04-29T20:59:02.239Z,10.80
2018-04-29T21:01:32.634Z,10.80
2018-04-29T21:04:25.169Z,10.80
2018-04-29T21:07:14.637Z,10.90
2018-04-29T21:09:44.972Z,10.90
2018-04-29T21:12:22.488Z,10.90
2018-04-29T21:14:52.852Z,10.70
2018-04-29T21:17:24.003Z,10.70
2018-04-29T21:19:54.325Z,10.70
2018-04-29T21:22:25.475Z,10.80
2018-04-29T21:24:55.723Z,10.80
2018-04-29T21:27:34.308Z,10.70
2018-04-29T21:30:05.369Z,10.70
2018-04-29T21:32:35.726Z,10.70
2018-04-29T21:35:26.446Z,10.80
2018-04-29T21:37:56.811Z,10.80
2018-04-29T21:40:29.089Z,10.80
2018-04-29T21:42:59.449Z,10.60
2018-04-29T21:45:30.823Z,10.70
2018-04-29T21:48:01.176Z,10.90
2018-04-29T21:50:32.298Z,10.70
2018-04-29T21:53:02.653Z,10.70
2018-04-29T21:55:33.007Z,10.70
2018-04-29T21:58:22.767Z,10.70
2018-04-29T22:00:53.104Z,10.70
2018-04-29T22:03:23.403Z,10.80
2018-04-29T22:05:53.773Z,10.70
2018-04-29T22:08:43.444Z,10.70
2018-04-29T22:11:15.869Z,10.60
2018-04-29T22:13:46.976Z,10.60
2018-04-29T22:16:20.344Z,10.60
2018-04-29T22:18:50.697Z,10.60
2018-04-29T22:21:21.054Z,10.70
2018-04-29T22:23:53.449Z,10.80
2018-04-29T22:26:23.830Z,10.80
2018-04-29T22:28:54.183Z,10.80
2018-04-29T22:31:24.543Z,10.70
2018-04-29T22:33:54.914Z,10.70
2018-04-29T22:36:25.274Z,10.70
2018-04-29T22:38:56.372Z,10.70
2018-04-29T22:41:26.750Z,10.70
2018-04-29T22:43:57.852Z,10.50
2018-04-29T22:46:28.413Z,10.50
2018-04-29T22:48:59.558Z,10.50
2018-04-29T22:51:32.703Z,10.60
2018-04-29T22:54:05.114Z,10.60
2018-04-29T22:56:35.760Z,10.60
2018-04-29T22:59:06.114Z,10.60
2018-04-29T23:01:36.490Z,10.50
2018-04-29T23:04:06.851Z,10.50
2018-04-29T23:06:37.208Z,10.50
2018-04-29T23:09:28.988Z,10.50
2018-04-29T23:12:00.079Z,10.50
2018-04-29T23:14:51.835Z,10.40
2018-04-29T23:17:22.172Z,10.50
2018-04-29T23:19:54.319Z,10.40
2018-04-29T23:25:08.726Z,10.40
2018-04-29T23:27:39.864Z,10.50
2018-04-29T23:30:10.984Z,10.30
2018-04-29T23:32:41.339Z,10.30
2018-04-29T23:35:12.484Z,10.20
2018-04-29T23:37:43.600Z,10.30
2018-04-29T23:40:13.938Z,10.30
2018-04-29T23:42:45.084Z,10.30
2018-04-29T23:45:16.159Z,10.30
2018-04-29T23:47:46.512Z,10.20
2018-04-29T23:50:39.040Z,10.30
2018-04-29T23:53:09.371Z,10.20
2018-04-29T23:55:45.868Z,10.20
2018-04-29T23:58:16.220Z,10.20
